createdAt,value
2023-04-02T00:09:48.665Z,7.80
2023-04-02T00:19:58.735Z,7.80
2023-04-02T00:30:04.384Z,7.70
2023-04-02T00:40:16.891Z,7.60
2023-04-02T00:50:29.093Z,7.60
2023-04-02T01:00:34.871Z,7.60
2023-04-02T01:11:01.550Z,7.60
2023-04-02T01:21:22.058Z,7.70
2023-04-02T01:31:28.629Z,7.70
2023-04-02T01:41:42.595Z,7.70
2023-04-02T01:51:53.157Z,7.60
2023-04-02T02:02:04.011Z,7.70
2023-04-02T02:12:14.954Z,7.70
2023-04-02T02:22:30.574Z,7.70
2023-04-02T02:32:41.288Z,7.70
2023-04-02T02:42:50.651Z,7.60
2023-04-02T02:52:59.862Z,7.60
2023-04-02T03:03:12.610Z,7.60
2023-04-02T03:13:25.904Z,7.50
2023-04-02T03:23:34.486Z,7.50
2023-04-02T03:33:44.382Z,7.50
2023-04-02T03:43:53.649Z,7.50
2023-04-02T03:53:58.999Z,7.50
2023-04-02T04:04:09.251Z,7.50
2023-04-02T04:14:20.759Z,7.40
2023-04-02T04:24:27.144Z,7.30
2023-04-02T04:34:53.667Z,7.30
2023-04-02T04:45:22.222Z,7.30
2023-04-02T04:55:36.867Z,7.30
2023-04-02T05:05:42.083Z,7.40
2023-04-02T05:15:56.833Z,7.40
2023-04-02T05:26:08.070Z,7.30
2023-04-02T05:36:21.781Z,7.30
2023-04-02T05:46:37.220Z,7.50
2023-04-02T05:56:48.542Z,7.60
2023-04-02T06:07:03.823Z,7.40
2023-04-02T06:17:12.246Z,7.50
2023-04-02T06:27:22.791Z,7.80
2023-04-02T06:37:33.035Z,7.90
2023-04-02T06:47:48.821Z,8.00
2023-04-02T06:58:06.572Z,8.30
2023-04-02T07:08:10.192Z,9.40
2023-04-02T07:18:25.979Z,10.10
2023-04-02T07:28:31.286Z,10.70
2023-04-02T07:38:36.480Z,10.00
2023-04-02T07:48:40.615Z,9.80
2023-04-02T07:58:46.018Z,9.60
2023-04-02T08:08:49.921Z,9.30
2023-04-02T08:18:55.151Z,8.70
2023-04-02T08:28:58.845Z,8.50
2023-04-02T08:39:04.652Z,8.40
2023-04-02T08:49:15.700Z,8.40
2023-04-02T08:59:33.212Z,7.60
2023-04-02T09:09:39.744Z,7.40
2023-04-02T09:19:53.448Z,7.80
2023-04-02T09:30:01.017Z,7.70
2023-04-02T09:40:43.606Z,7.40
2023-04-02T09:50:47.233Z,6.90
2023-04-02T10:00:56.364Z,6.30
2023-04-02T10:11:04.032Z,6.00
2023-04-02T10:21:12.500Z,5.80
2023-04-02T10:31:23.279Z,6.00
2023-04-02T10:41:36.942Z,6.10
2023-04-02T10:51:46.226Z,6.10
2023-04-02T11:01:52.992Z,6.30
2023-04-02T11:11:59.522Z,6.50
2023-04-02T11:22:16.241Z,7.00
2023-04-02T11:32:42.791Z,7.50
2023-04-02T11:42:50.019Z,7.70
2023-04-02T11:52:55.891Z,7.10
2023-04-02T12:03:33.413Z,6.90
2023-04-02T12:13:55.193Z,6.90
2023-04-02T12:24:02.022Z,6.80
2023-04-02T12:34:05.601Z,7.10
2023-04-02T12:44:17.353Z,6.80
2023-04-02T12:54:22.035Z,6.40
2023-04-02T13:04:27.851Z,6.20
2023-04-02T13:14:32.612Z,5.90
2023-04-02T13:24:37.847Z,5.60
2023-04-02T13:34:41.590Z,5.40
2023-04-02T13:44:47.965Z,5.40
2023-04-02T13:54:55.553Z,5.30
2023-04-02T14:05:19.386Z,5.10
2023-04-02T14:15:37.578Z,5.10
2023-04-02T14:25:56.413Z,5.10
2023-04-02T14:36:13.386Z,5.30
2023-04-02T14:46:18.441Z,5.10
2023-04-02T14:56:25.841Z,5.40
2023-04-02T15:06:37.242Z,5.60
2023-04-02T15:16:41.232Z,5.40
2023-04-02T15:26:56.548Z,5.20
2023-04-02T15:37:21.340Z,4.90
2023-04-02T15:47:36.713Z,4.60
2023-04-02T15:58:13.811Z,4.40
2023-04-02T16:08:40.302Z,4.30
2023-04-02T16:18:54.053Z,4.10
2023-04-02T16:29:13.578Z,3.90
2023-04-02T16:39:30.506Z,3.80
2023-04-02T16:49:41.897Z,3.70
2023-04-02T17:00:00.178Z,3.50
2023-04-02T17:10:31.435Z,3.50
2023-04-02T17:20:35.378Z,3.40
2023-04-02T17:30:44.664Z,3.30
2023-04-02T17:40:56.311Z,3.20
2023-04-02T17:51:10.047Z,3.10
2023-04-02T18:01:20.191Z,3.20
2023-04-02T18:11:34.828Z,3.10
2023-04-02T18:21:48.216Z,3.10
2023-04-02T18:32:16.672Z,3.10
2023-04-02T18:42:38.176Z,3.00
2023-04-02T18:52:43.457Z,2.90
2023-04-02T19:02:52.355Z,2.80
2023-04-02T19:12:57.621Z,2.70
2023-04-02T19:23:15.223Z,2.80
2023-04-02T19:33:39.560Z,2.80
2023-04-02T19:43:43.535Z,2.80
2023-04-02T19:53:49.761Z,2.80
2023-04-02T20:03:53.429Z,2.80
2023-04-02T20:13:58.484Z,2.70
2023-04-02T20:24:02.468Z,2.80
2023-04-02T20:34:09.669Z,2.80
2023-04-02T20:44:13.693Z,2.70
2023-04-02T20:54:18.880Z,2.70
2023-04-02T21:04:22.829Z,2.70
2023-04-02T21:14:28.226Z,2.60
2023-04-02T21:24:31.886Z,2.50
2023-04-02T21:34:37.088Z,2.40
2023-04-02T21:44:40.910Z,2.40
2023-04-02T21:54:46.475Z,2.20
2023-04-02T22:04:52.026Z,2.10
2023-04-02T22:14:56.987Z,2.10
2023-04-02T22:25:01.834Z,2.00
2023-04-02T22:35:07.638Z,2.00
2023-04-02T22:45:12.935Z,1.90
2023-04-02T22:55:18.305Z,1.90
2023-04-02T23:05:22.059Z,2.00
2023-04-02T23:15:27.177Z,1.90
2023-04-02T23:25:31.158Z,1.80
2023-04-02T23:35:36.827Z,1.70
2023-04-02T23:45:40.611Z,1.60
2023-04-02T23:55:45.955Z,1.60
